createdAt,value
2023-04-02T00:04:24.639Z,4.26
2023-04-02T00:08:18.777Z,4.26
2023-04-02T00:12:10.734Z,4.26
2023-04-02T00:15:59.439Z,4.30
2023-04-02T00:24:18.265Z,4.35
2023-04-02T00:28:45.815Z,4.32
2023-04-02T00:33:09.176Z,4.40
2023-04-02T00:37:13.858Z,4.43
2023-04-02T00:41:37.536Z,4.46
2023-04-02T00:46:11.053Z,4.38
2023-04-02T00:55:07.854Z,4.41
2023-04-02T00:59:34.171Z,4.35
2023-04-02T01:03:21.763Z,4.41
2023-04-02T01:07:12.260Z,4.38
2023-04-02T01:11:13.117Z,4.37
2023-04-02T01:15:00.418Z,4.48
2023-04-02T01:19:11.957Z,4.53
2023-04-02T01:23:03.840Z,4.45
2023-04-02T01:27:09.663Z,4.43
2023-04-02T01:31:00.056Z,4.38
2023-04-02T01:34:47.579Z,4.40
2023-04-02T01:38:33.874Z,4.40
2023-04-02T01:42:24.145Z,4.49
2023-04-02T01:46:13.085Z,4.60
2023-04-02T01:50:00.616Z,4.67
2023-04-02T01:53:50.911Z,4.52
2023-04-02T01:57:38.370Z,4.43
2023-04-02T02:01:36.776Z,4.46
2023-04-02T02:05:22.826Z,4.44
2023-04-02T02:09:12.832Z,4.53
2023-04-02T02:12:48.877Z,4.56
2023-04-02T02:16:39.031Z,4.43
2023-04-02T02:20:23.761Z,4.44
2023-04-02T02:24:04.230Z,4.49
2023-04-02T02:28:06.889Z,4.55
2023-04-02T02:31:58.193Z,4.55
2023-04-02T02:35:51.466Z,4.48
2023-04-02T02:44:25.261Z,4.54
2023-04-02T02:48:03.593Z,4.58
2023-04-02T02:52:11.640Z,4.59
2023-04-02T02:56:04.188Z,4.61
2023-04-02T02:59:56.298Z,4.55
2023-04-02T03:03:50.442Z,4.55
2023-04-02T03:07:10.070Z,4.57
2023-04-02T03:11:12.892Z,4.51
2023-04-02T03:14:56.609Z,4.48
2023-04-02T03:18:52.172Z,4.51
2023-04-02T03:22:37.608Z,4.53
2023-04-02T03:26:27.819Z,4.47
2023-04-02T03:30:20.750Z,4.62
2023-04-02T03:34:14.232Z,4.55
2023-04-02T03:37:55.461Z,4.47
2023-04-02T03:41:58.396Z,4.52
2023-04-02T03:46:25.942Z,4.54
2023-04-02T03:50:54.675Z,4.45
2023-04-02T03:55:23.486Z,4.35
2023-04-02T03:59:56.577Z,4.44
2023-04-02T04:08:44.260Z,4.35
2023-04-02T04:13:27.012Z,4.24
2023-04-02T04:17:40.542Z,4.16
2023-04-02T04:22:10.805Z,4.04
2023-04-02T04:26:34.583Z,4.12
2023-04-02T04:35:28.529Z,4.11
2023-04-02T04:40:07.073Z,4.10
2023-04-02T04:44:43.668Z,4.06
2023-04-02T04:49:30.393Z,4.10
2023-04-02T04:54:00.887Z,4.20
2023-04-02T04:58:33.746Z,4.10
2023-04-02T05:02:41.037Z,4.18
2023-04-02T05:06:25.524Z,4.34
2023-04-02T05:10:13.012Z,4.28
2023-04-02T05:14:01.525Z,4.27
2023-04-02T05:17:37.845Z,4.25
2023-04-02T05:21:26.633Z,4.16
2023-04-02T05:25:15.927Z,4.21
2023-04-02T05:28:59.589Z,4.21
2023-04-02T05:32:46.117Z,4.26
2023-04-02T05:36:27.909Z,4.37
2023-04-02T05:40:15.765Z,4.34
2023-04-02T05:44:03.549Z,4.45
2023-04-02T05:47:54.623Z,4.57
2023-04-02T05:51:42.600Z,4.67
2023-04-02T05:55:35.888Z,4.72
2023-04-02T05:59:24.726Z,4.66
2023-04-02T06:03:05.496Z,4.85
2023-04-02T06:06:46.730Z,4.76
2023-04-02T06:10:35.050Z,4.82
2023-04-02T06:14:12.668Z,4.82
2023-04-02T06:18:00.700Z,4.84
2023-04-02T06:21:48.180Z,4.84
2023-04-02T06:25:30.351Z,4.69
2023-04-02T06:29:09.624Z,4.55
2023-04-02T06:32:52.407Z,4.37
2023-04-02T06:36:40.559Z,4.37
2023-04-02T06:44:55.541Z,4.32
2023-04-02T06:48:41.336Z,4.49
2023-04-02T06:52:29.249Z,4.53
2023-04-02T06:56:35.391Z,4.55
2023-04-02T07:00:23.517Z,4.61
2023-04-02T07:04:01.451Z,4.62
2023-04-02T07:07:51.874Z,4.61
2023-04-02T07:11:39.832Z,4.80
2023-04-02T07:15:21.885Z,4.87
2023-04-02T07:19:22.560Z,4.79
2023-04-02T07:32:19.159Z,4.90
2023-04-02T07:38:05.018Z,4.83
2023-04-02T07:42:36.678Z,4.87
2023-04-02T07:46:47.247Z,4.99
2023-04-02T07:50:57.927Z,5.03
2023-04-02T07:55:27.374Z,5.26
2023-04-02T07:59:56.595Z,5.27
2023-04-02T08:04:26.040Z,5.21
2023-04-02T08:08:46.019Z,5.20
2023-04-02T08:13:15.282Z,5.15
2023-04-02T08:17:26.537Z,5.18
2023-04-02T08:21:39.227Z,5.43
2023-04-02T08:26:01.213Z,5.36
2023-04-02T08:30:10.285Z,5.61
2023-04-02T08:34:35.749Z,5.79
2023-04-02T08:38:24.959Z,5.72
2023-04-02T08:42:52.859Z,5.80
2023-04-02T08:47:37.875Z,5.76
2023-04-02T08:51:48.993Z,5.80
2023-04-02T08:56:20.842Z,5.83
2023-04-02T09:00:37.992Z,5.92
2023-04-02T09:04:48.871Z,6.31
2023-04-02T09:09:00.438Z,6.62
2023-04-02T09:13:19.781Z,6.84
2023-04-02T09:17:42.770Z,6.79
2023-04-02T09:21:13.369Z,6.85
2023-04-02T09:24:43.531Z,6.71
2023-04-02T09:28:33.408Z,7.02
2023-04-02T09:32:24.403Z,7.18
2023-04-02T09:35:51.975Z,7.08
2023-04-02T09:39:41.710Z,7.30
2023-04-02T09:43:30.298Z,7.40
2023-04-02T09:46:47.148Z,7.20
2023-04-02T09:50:36.962Z,7.35
2023-04-02T09:54:28.165Z,7.13
2023-04-02T09:58:16.393Z,7.11
2023-04-02T10:02:05.437Z,6.94
2023-04-02T10:05:43.089Z,6.92
2023-04-02T10:09:00.054Z,7.07
2023-04-02T10:12:49.497Z,7.34
2023-04-02T10:20:18.365Z,7.48
2023-04-02T10:24:07.638Z,7.52
2023-04-02T10:28:03.145Z,7.57
2023-04-02T10:32:02.184Z,7.37
2023-04-02T10:35:19.497Z,7.22
2023-04-02T10:38:13.217Z,7.07
2023-04-02T10:41:51.362Z,7.36
2023-04-02T10:45:19.035Z,7.18
2023-04-02T10:49:23.800Z,7.14
2023-04-02T10:52:37.812Z,6.98
2023-04-02T10:55:51.089Z,7.01
2023-04-02T10:59:21.109Z,7.15
2023-04-02T11:02:26.932Z,7.06
2023-04-02T11:05:51.495Z,7.17
2023-04-02T11:09:24.373Z,7.21
2023-04-02T11:12:02.249Z,7.45
2023-04-02T11:15:14.886Z,7.35
2023-04-02T11:18:50.878Z,7.41
2023-04-02T11:21:58.703Z,7.38
2023-04-02T11:25:07.711Z,7.65
2023-04-02T11:27:41.368Z,7.74
2023-04-02T11:31:26.480Z,7.76
2023-04-02T11:35:21.737Z,7.55
2023-04-02T11:39:04.460Z,7.27
2023-04-02T11:42:38.005Z,7.64
2023-04-02T11:46:27.218Z,7.65
2023-04-02T11:50:09.410Z,7.73
2023-04-02T11:53:58.616Z,8.01
2023-04-02T11:57:52.464Z,7.98
2023-04-02T12:01:53.733Z,7.89
2023-04-02T12:05:04.631Z,7.95
2023-04-02T12:08:58.439Z,7.74
2023-04-02T12:12:56.744Z,7.92
2023-04-02T12:16:24.738Z,7.77
2023-04-02T12:20:14.563Z,7.59
2023-04-02T12:23:36.927Z,7.61
2023-04-02T12:26:38.655Z,7.77
2023-04-02T12:30:14.667Z,7.77
2023-04-02T12:34:05.088Z,7.96
2023-04-02T12:37:46.440Z,8.00
2023-04-02T12:41:36.568Z,8.13
2023-04-02T12:45:14.125Z,8.37
2023-04-02T12:48:45.939Z,8.30
2023-04-02T12:52:26.110Z,8.13
2023-04-02T12:56:08.415Z,8.16
2023-04-02T13:00:00.831Z,8.12
2023-04-02T13:03:56.528Z,8.23
2023-04-02T13:07:45.906Z,8.34
2023-04-02T13:11:15.421Z,8.11
2023-04-02T13:15:00.350Z,8.02
2023-04-02T13:18:41.366Z,8.12
2023-04-02T13:22:24.418Z,7.98
2023-04-02T13:25:56.685Z,8.08
2023-04-02T13:30:05.043Z,8.09
2023-04-02T13:33:53.415Z,7.85
2023-04-02T13:37:34.254Z,7.80
2023-04-02T13:41:06.673Z,7.99
2023-04-02T13:44:23.566Z,8.08
2023-04-02T13:48:04.043Z,7.94
2023-04-02T13:51:45.281Z,7.82
2023-04-02T13:55:25.342Z,8.07
2023-04-02T13:58:58.358Z,7.94
2023-04-02T14:02:47.090Z,7.83
2023-04-02T14:06:33.083Z,7.66
2023-04-02T14:10:31.561Z,7.65
2023-04-02T14:14:34.341Z,7.79
2023-04-02T14:18:38.596Z,7.84
2023-04-02T14:22:39.694Z,7.95
2023-04-02T14:26:39.556Z,7.81
2023-04-02T14:30:52.797Z,7.87
2023-04-02T14:34:41.212Z,7.90
2023-04-02T14:38:29.293Z,7.93
2023-04-02T14:42:24.053Z,8.17
2023-04-02T14:46:07.246Z,8.04
2023-04-02T14:50:13.057Z,8.03
2023-04-02T14:53:48.700Z,8.03
2023-04-02T14:57:31.033Z,8.01
2023-04-02T15:01:31.145Z,8.04
2023-04-02T15:05:18.742Z,8.35
2023-04-02T15:09:09.664Z,8.23
2023-04-02T15:12:10.705Z,8.15
2023-04-02T15:15:48.336Z,8.11
2023-04-02T15:19:24.018Z,8.11
2023-04-02T15:23:11.135Z,8.04
2023-04-02T15:26:58.222Z,8.03
2023-04-02T15:30:44.599Z,7.94
2023-04-02T15:34:17.072Z,8.00
2023-04-02T15:38:08.117Z,8.06
2023-04-02T15:42:03.069Z,8.12
2023-04-02T15:46:03.461Z,8.16
2023-04-02T15:50:04.452Z,8.13
2023-04-02T15:53:55.721Z,8.09
2023-04-02T15:57:41.664Z,8.17
2023-04-02T16:01:10.581Z,8.21
2023-04-02T16:05:14.525Z,8.19
2023-04-02T16:09:03.304Z,8.15
2023-04-02T16:12:27.339Z,8.23
2023-04-02T16:16:11.774Z,8.13
2023-04-02T16:20:06.882Z,8.26
2023-04-02T16:23:58.726Z,8.17
2023-04-02T16:27:55.514Z,8.11
2023-04-02T16:31:50.567Z,8.26
2023-04-02T16:39:36.936Z,8.27
2023-04-02T16:43:34.844Z,8.16
2023-04-02T16:47:25.251Z,8.18
2023-04-02T16:51:14.105Z,7.94
2023-04-02T16:54:56.622Z,7.94
2023-04-02T16:58:47.936Z,7.91
2023-04-02T17:02:44.483Z,7.84
2023-04-02T17:06:39.743Z,7.78
2023-04-02T17:10:31.177Z,7.37
2023-04-02T17:14:06.211Z,7.16
2023-04-02T17:17:34.407Z,6.97
2023-04-02T17:21:07.397Z,6.86
2023-04-02T17:24:54.831Z,6.67
2023-04-02T17:28:36.993Z,6.52
2023-04-02T17:32:25.076Z,6.48
2023-04-02T17:36:04.435Z,6.39
2023-04-02T17:39:53.082Z,6.34
2023-04-02T17:43:53.403Z,6.28
2023-04-02T17:47:45.592Z,6.12
2023-04-02T17:51:42.002Z,6.09
2023-04-02T17:55:36.270Z,5.98
2023-04-02T17:59:32.306Z,5.78
2023-04-02T18:03:24.504Z,5.63
2023-04-02T18:07:14.125Z,5.49
2023-04-02T18:11:08.267Z,5.39
2023-04-02T18:14:56.795Z,5.34
2023-04-02T18:18:47.305Z,5.37
2023-04-02T18:22:25.810Z,5.30
2023-04-02T18:26:25.827Z,5.19
2023-04-02T18:30:15.790Z,5.10
2023-04-02T18:34:00.161Z,5.01
2023-04-02T18:37:15.041Z,4.91
2023-04-02T18:40:22.615Z,4.88
2023-04-02T18:44:03.742Z,4.84
2023-04-02T18:47:34.396Z,4.75
2023-04-02T18:50:59.316Z,4.70
2023-04-02T18:54:40.652Z,4.63
2023-04-02T18:58:10.338Z,4.54
2023-04-02T19:01:26.038Z,4.50
2023-04-02T19:05:02.681Z,4.50
2023-04-02T19:08:49.996Z,4.44
2023-04-02T19:12:16.257Z,4.36
2023-04-02T19:15:30.782Z,4.28
2023-04-02T19:21:59.294Z,4.17
2023-04-02T19:26:35.288Z,4.04
2023-04-02T19:31:09.736Z,4.09
2023-04-02T19:35:46.659Z,4.01
2023-04-02T19:40:23.742Z,3.91
2023-04-02T19:44:54.404Z,3.93
2023-04-02T19:49:27.984Z,3.78
2023-04-02T19:53:38.770Z,3.81
2023-04-02T19:58:17.736Z,3.73
2023-04-02T20:02:36.764Z,3.76
2023-04-02T20:07:05.338Z,3.72
2023-04-02T20:11:14.806Z,3.64
2023-04-02T20:15:43.458Z,3.55
2023-04-02T20:20:14.621Z,3.53
2023-04-02T20:24:44.771Z,3.45
2023-04-02T20:29:21.721Z,3.38
2023-04-02T20:33:51.003Z,3.34
2023-04-02T20:38:24.499Z,3.25
2023-04-02T20:42:55.133Z,3.25
2023-04-02T20:47:29.255Z,3.10
2023-04-02T20:51:57.440Z,3.02
2023-04-02T20:56:25.295Z,2.99
2023-04-02T21:00:56.443Z,2.96
2023-04-02T21:05:24.445Z,2.93
2023-04-02T21:09:55.793Z,2.89
2023-04-02T21:14:24.288Z,2.93
2023-04-02T21:18:52.308Z,2.88
2023-04-02T21:23:23.754Z,2.81
2023-04-02T21:27:54.845Z,2.73
2023-04-02T21:32:23.069Z,2.72
2023-04-02T21:36:54.830Z,2.65
2023-04-02T21:41:23.573Z,2.53
2023-04-02T21:45:52.033Z,2.56
2023-04-02T21:50:20.521Z,2.48
2023-04-02T21:54:48.895Z,2.48
2023-04-02T21:59:16.915Z,2.50
2023-04-02T22:03:45.663Z,2.43
2023-04-02T22:08:13.712Z,2.38
2023-04-02T22:12:41.828Z,2.31
2023-04-02T22:17:15.878Z,2.26
2023-04-02T22:21:43.900Z,2.26
2023-04-02T22:26:12.082Z,2.24
2023-04-02T22:30:40.365Z,2.21
2023-04-02T22:35:08.078Z,2.11
2023-04-02T22:39:36.555Z,2.05
2023-04-02T22:44:04.588Z,1.93
2023-04-02T22:48:32.924Z,1.90
2023-04-02T22:53:00.472Z,1.95
2023-04-02T22:57:29.313Z,1.87
2023-04-02T23:01:56.604Z,1.85
2023-04-02T23:06:23.962Z,1.78
2023-04-02T23:10:52.148Z,1.78
2023-04-02T23:15:20.001Z,1.74
2023-04-02T23:19:47.495Z,1.71
2023-04-02T23:24:15.925Z,1.61
2023-04-02T23:28:43.985Z,1.60
2023-04-02T23:33:11.486Z,1.60
2023-04-02T23:37:39.413Z,1.48
2023-04-02T23:42:12.509Z,1.47
2023-04-02T23:46:43.735Z,1.39
2023-04-02T23:51:11.196Z,1.38
